Time;durP1;ratioP1;P1;durP2;ratioP2;P2;SDS_P1;SDS_P2;PMS_P1;PMS_P2;Temp;Humidity;BMP_temperature;BMP_pressure;BME280_temperature;BME280_humidity;BME280_pressure;Samples;Min_cycle;Max_cycle;Signal;HPM_P1;HPM_P2
2023/02/19 00:02:27;;;;;;;22.60;12.00;;;;;;;7.78;71.77;100379.29;107508;1254;109490;-71
2023/02/19 00:04:56;;;;;;;32.90;13.00;;;;;;;7.75;72.04;100391.73;107490;1254;109574;-67
2023/02/19 00:07:24;;;;;;;24.60;12.00;;;;;;;7.76;72.26;100406.08;107481;1257;108622;-68
2023/02/19 00:09:53;;;;;;;24.60;11.30;;;;;;;7.78;72.69;100406.84;107448;1254;95836;-69
2023/02/19 00:12:21;;;;;;;29.90;12.70;;;;;;;7.81;73.07;100408.84;107531;1254;95692;-67
2023/02/19 00:14:49;;;;;;;26.30;12.20;;;;;;;7.85;73.32;100411.42;107485;1254;108430;-67
2023/02/19 00:17:17;;;;;;;21.70;12.50;;;;;;;7.90;73.73;100414.06;107509;1253;110006;-65
2023/02/19 00:19:46;;;;;;;26.20;13.30;;;;;;;7.91;73.68;100419.27;107466;1254;107185;-67
2023/02/19 00:22:14;;;;;;;26.90;12.60;;;;;;;7.88;73.79;100424.04;107498;1254;95861;-66
2023/02/19 00:24:42;;;;;;;38.50;13.60;;;;;;;7.89;74.21;100428.27;107532;1253;95771;-65
2023/02/19 00:27:11;;;;;;;31.70;15.10;;;;;;;7.87;73.98;100425.91;107521;1254;108401;-67
2023/02/19 00:29:39;;;;;;;28.40;13.50;;;;;;;7.85;74.24;100423.55;107517;1254;109754;-66
2023/02/19 00:32:08;;;;;;;21.80;12.70;;;;;;;7.83;74.44;100426.02;107511;1254;108671;-65
2023/02/19 00:34:36;;;;;;;27.60;13.00;;;;;;;7.85;74.89;100427.29;107448;1254;95784;-66
2023/02/19 00:37:04;;;;;;;22.60;13.30;;;;;;;7.88;75.03;100418.00;107499;1253;95779;-64
2023/02/19 00:39:33;;;;;;;22.30;13.40;;;;;;;7.88;74.95;100411.33;107442;1253;108775;-67
2023/02/19 00:42:01;;;;;;;20.60;12.40;;;;;;;7.89;75.16;100410.73;107453;1254;109630;-66
2023/02/19 00:44:30;;;;;;;23.50;12.50;;;;;;;7.87;75.45;100405.41;107407;1253;108236;-66
2023/02/19 00:46:58;;;;;;;22.10;11.10;;;;;;;7.88;75.85;100403.68;107484;1254;95800;-66
2023/02/19 00:49:27;;;;;;;21.30;11.00;;;;;;;7.87;75.95;100398.91;107406;1253;95896;-66
2023/02/19 00:51:55;;;;;;;20.10;11.50;;;;;;;7.85;75.87;100398.91;107394;1254;109132;-66
2023/02/19 00:54:24;;;;;;;20.30;11.20;;;;;;;7.83;75.82;100393.70;107412;1254;109112;-67
2023/02/19 00:56:52;;;;;;;22.30;11.90;;;;;;;7.85;76.14;100396.43;107458;1253;108247;-66
2023/02/19 00:59:21;;;;;;;16.70;10.50;;;;;;;7.88;76.28;100384.60;107289;1254;95942;-67
2023/02/19 01:01:49;;;;;;;26.70;11.90;;;;;;;7.90;76.07;100380.50;107492;1253;95779;-66
2023/02/19 01:04:18;;;;;;;25.30;11.40;;;;;;;7.90;76.33;100379.73;107413;1254;109328;-67
2023/02/19 01:06:47;;;;;;;20.00;10.20;;;;;;;7.90;76.27;100380.83;107504;1254;108939;-65
2023/02/19 01:09:16;;;;;;;21.00;12.20;;;;;;;7.90;76.18;100381.02;107533;1254;107220;-67
2023/02/19 01:11:44;;;;;;;21.20;11.60;;;;;;;7.88;76.25;100382.79;107512;1254;95870;-67
2023/02/19 01:14:13;;;;;;;19.10;11.30;;;;;;;7.88;76.18;100384.56;107493;1254;95877;-67
2023/02/19 01:16:42;;;;;;;22.20;11.20;;;;;;;7.86;76.03;100389.36;107487;1254;109344;-66
2023/02/19 01:19:10;;;;;;;19.90;9.90;;;;;;;7.83;76.27;100393.84;107506;1257;110642;-67
2023/02/19 01:21:40;;;;;;;18.30;9.80;;;;;;;7.83;76.38;100406.52;107484;1257;107630;-66
2023/02/19 01:24:10;;;;;;;16.70;9.40;;;;;;;7.80;76.22;100402.32;107525;1254;95806;-67
2023/02/19 01:26:39;;;;;;;13.30;8.80;;;;;;;7.78;76.39;100399.80;107423;1254;95796;-66
2023/02/19 01:29:08;;;;;;;15.20;9.10;;;;;;;7.76;76.83;100406.06;107526;1254;109689;-66
2023/02/19 01:31:39;;;;;;;17.90;8.70;;;;;;;7.73;76.71;100406.15;107520;1254;109645;-66
2023/02/19 01:34:10;;;;;;;13.30;8.80;;;;;;;7.74;76.90;100412.83;107461;1254;108654;-66
2023/02/19 01:36:39;;;;;;;19.60;9.90;;;;;;;7.76;76.80;100413.95;107569;1254;95803;-66
2023/02/19 01:39:09;;;;;;;19.40;9.60;;;;;;;7.79;77.07;100414.26;107503;1254;95671;-67
2023/02/19 01:41:40;;;;;;;14.10;9.80;;;;;;;7.81;77.18;100419.19;107469;1256;109146;-65
2023/02/19 01:44:17;;;;;;;13.90;8.70;;;;;;;7.81;76.99;100418.70;107532;1253;109705;-66
2023/02/19 01:46:47;;;;;;;16.10;9.90;;;;;;;7.80;76.80;100419.83;107485;1254;108163;-65
2023/02/19 01:49:25;;;;;;;14.60;8.90;;;;;;;7.80;77.21;100430.04;107493;1254;95743;-66
2023/02/19 01:52:13;;;;;;;18.00;9.10;;;;;;;7.75;76.75;100427.61;107518;1254;95796;-67
2023/02/19 01:54:44;;;;;;;17.70;9.60;;;;;;;7.74;77.10;100432.27;107536;1254;108334;-66
2023/02/19 01:57:18;;;;;;;16.20;8.80;;;;;;;7.79;77.23;100432.80;107438;1257;109322;-66
2023/02/19 01:59:53;;;;;;;10.90;8.50;;;;;;;7.80;77.13;100431.63;107454;1254;108615;-65
2023/02/19 02:02:27;;;;;;;13.70;9.50;;;;;;;7.80;77.17;100431.27;107315;1254;96383;-65
2023/02/19 02:04:59;;;;;;;14.60;8.00;;;;;;;7.77;76.90;100425.44;107511;1254;97184;-66
2023/02/19 02:10:20;;;;;;;12.90;8.70;;;;;;;7.72;76.80;100428.91;107444;1254;109279;-66
2023/02/19 02:12:51;;;;;;;12.80;7.80;;;;;;;7.72;76.77;100433.39;107400;1258;108295;-67
2023/02/19 02:15:21;;;;;;;12.50;8.70;;;;;;;7.71;76.92;100436.14;107434;1254;96485;-65
2023/02/19 02:18:04;;;;;;;19.80;9.20;;;;;;;7.71;77.02;100432.05;107456;1257;96427;-65
2023/02/19 02:21:17;;;;;;;13.30;8.50;;;;;;;7.72;76.87;100440.38;107495;1254;109112;-65
2023/02/19 02:24:08;;;;;;;17.00;8.30;;;;;;;7.68;76.59;100456.35;107160;1259;109693;-65
2023/02/19 02:26:55;;;;;;;14.80;8.10;;;;;;;7.65;76.42;100473.36;107555;1257;108838;-66
2023/02/19 02:30:01;;;;;;;11.10;7.40;;;;;;;7.62;76.45;100488.83;107511;1253;96475;-67
2023/02/19 02:33:03;;;;;;;11.70;7.50;;;;;;;7.47;76.26;100502.66;107531;1254;96440;-64
2023/02/19 02:35:38;;;;;;;14.30;8.90;;;;;;;7.38;76.25;100527.83;107373;1254;111637;-66
2023/02/19 02:38:10;;;;;;;14.90;9.60;;;;;;;7.32;76.38;100551.66;107582;1253;109717;-65
2023/02/19 02:40:42;;;;;;;13.50;9.00;;;;;;;7.28;76.77;100569.30;107330;1254;109511;-67
2023/02/19 02:43:11;;;;;;;16.60;9.30;;;;;;;7.22;77.09;100569.23;107426;1254;96465;-67
2023/02/19 02:45:40;;;;;;;13.10;9.30;;;;;;;7.21;77.41;100575.88;107470;1254;96501;-66
2023/02/19 02:48:30;;;;;;;7.70;6.40;;;;;;;7.19;78.26;100573.66;107522;1253;110516;-65
2023/02/19 02:51:20;;;;;;;12.80;7.90;;;;;;;7.18;78.30;100571.80;107378;1255;110097;-65
2023/02/19 02:56:50;;;;;;;10.40;5.60;;;;;;;7.20;78.86;100579.34;107395;1254;96693;-65
2023/02/19 02:59:23;;;;;;;9.00;5.70;;;;;;;7.22;79.71;100576.37;107380;1254;96471;-67
2023/02/19 03:02:12;;;;;;;8.90;5.90;;;;;;;7.25;79.49;100578.09;107447;1254;109921;-65
2023/02/19 03:08:05;;;;;;;10.10;6.00;;;;;;;7.35;79.58;100582.80;107433;1258;108392;-67
2023/02/19 03:19:17;;;;;;;12.50;6.90;;;;;;;7.39;80.27;100593.44;107486;1254;96491;-65
2023/02/19 03:19:37;;;;;;;18.20;6.70;;;;;;;7.31;82.43;100605.42;107519;1254;110300;-65
2023/02/19 03:22:18;;;;;;;7.60;5.80;;;;;;;7.32;82.74;100606.77;107407;1254;108168;-67
2023/02/19 03:27:45;;;;;;;8.50;5.20;;;;;;;7.29;83.00;100607.73;107537;1254;96384;-66
2023/02/19 03:30:20;;;;;;;7.60;5.40;;;;;;;7.27;83.53;100616.27;107450;1254;110743;-65
2023/02/19 03:32:56;;;;;;;12.90;5.00;;;;;;;7.26;83.55;100625.09;107561;1253;109825;-65
2023/02/19 03:35:29;;;;;;;6.90;4.90;;;;;;;7.23;83.60;100631.17;107487;1258;107263;-66
2023/02/19 03:38:25;;;;;;;7.70;5.00;;;;;;;7.19;83.21;100628.25;107428;1254;96470;-66
2023/02/19 03:41:10;;;;;;;6.80;4.00;;;;;;;7.18;82.53;100620.50;107377;1254;96998;-65
2023/02/19 03:43:50;;;;;;;8.20;5.30;;;;;;;7.13;82.60;100630.53;107512;1254;110426;-65
2023/02/19 03:46:34;;;;;;;8.00;4.30;;;;;;;7.08;82.44;100638.89;107426;1254;109417;-66
2023/02/19 03:49:23;;;;;;;7.20;3.60;;;;;;;7.02;82.51;100640.25;107437;1254;108182;-67
2023/02/19 03:52:44;;;;;;;5.40;4.10;;;;;;;6.98;82.54;100631.66;107536;1253;96467;-68
2023/02/19 03:55:21;;;;;;;6.20;3.50;;;;;;;6.93;82.49;100630.77;107271;1254;96429;-67
2023/02/19 03:57:56;;;;;;;7.40;3.90;;;;;;;6.90;82.55;100623.15;107550;1254;110888;-66
2023/02/19 04:00:43;;;;;;;6.00;4.10;;;;;;;6.90;81.94;100608.73;107529;1254;108821;-66
2023/02/19 04:03:45;;;;;;;8.20;3.90;;;;;;;6.93;81.43;100610.08;107371;1254;108159;-65
2023/02/19 04:06:21;;;;;;;7.10;3.90;;;;;;;6.97;81.14;100616.94;107415;1254;96392;-65
2023/02/19 04:08:55;;;;;;;5.00;3.70;;;;;;;6.97;81.34;100626.92;107542;1257;96475;-67
2023/02/19 04:11:25;;;;;;;6.70;3.30;;;;;;;6.93;80.76;100627.41;107562;1254;110412;-67
2023/02/19 04:14:14;;;;;;;4.40;3.50;;;;;;;6.91;81.25;100631.66;107406;1254;109989;-68
2023/02/19 04:16:44;;;;;;;;;;;;;;;6.85;81.06;100635.63;107553;1254;108759;-66
2023/02/19 04:19:17;;;;;;;7.30;3.50;;;;;;;6.79;80.97;100647.31;107508;1254;96904;-66
2023/02/19 04:21:49;;;;;;;7.10;3.50;;;;;;;6.76;81.18;100650.23;107476;1254;96370;-66
2023/02/19 04:24:33;;;;;;;6.90;3.90;;;;;;;6.71;81.66;100667.86;107515;1253;111128;-66
2023/02/19 04:27:03;;;;;;;4.90;2.90;;;;;;;6.73;81.72;100669.70;107480;1253;109597;-65
2023/02/19 04:29:32;;;;;;;6.90;3.40;;;;;;;6.76;81.81;100667.70;107466;1254;108581;-66
2023/02/19 04:32:00;;;;;;;4.70;3.50;;;;;;;6.77;81.66;100671.56;107482;1254;96477;-67
2023/02/19 04:34:31;;;;;;;3.90;2.80;;;;;;;6.78;81.85;100676.66;107549;1254;96355;-65
2023/02/19 04:36:59;;;;;;;5.00;3.90;;;;;;;6.77;81.65;100683.34;107482;1254;109952;-65
2023/02/19 04:39:28;;;;;;;8.40;3.20;;;;;;;6.78;81.47;100679.34;107492;1254;109715;-66
2023/02/19 04:41:57;;;;;;;7.50;3.60;;;;;;;6.79;81.44;100686.73;107537;1253;107691;-65
2023/02/19 04:44:25;;;;;;;5.70;3.70;;;;;;;6.82;81.35;100687.04;107399;1254;96600;-65
2023/02/19 04:46:54;;;;;;;9.60;3.40;;;;;;;6.87;81.07;100692.73;107535;1254;97013;-66
2023/02/19 04:49:24;;;;;;;6.10;3.60;;;;;;;6.90;80.99;100706.39;107554;1254;110020;-67
2023/02/19 04:51:52;;;;;;;4.70;3.20;;;;;;;6.97;80.95;100706.42;107490;1257;110012;-65
2023/02/19 04:54:20;;;;;;;8.50;3.70;;;;;;;7.04;80.63;100707.52;107479;1254;108134;-67
2023/02/19 04:56:49;;;;;;;6.70;3.90;;;;;;;7.12;80.45;100710.64;107566;1254;96920;-66
2023/02/19 04:59:17;;;;;;;6.20;3.70;;;;;;;7.22;80.70;100711.73;107499;1254;96366;-66
2023/02/19 05:01:46;;;;;;;8.00;4.20;;;;;;;7.32;80.50;100709.73;107505;1254;110829;-65
2023/02/19 05:04:14;;;;;;;5.30;4.20;;;;;;;7.39;80.47;100707.40;107574;1253;109079;-67
2023/02/19 05:06:43;;;;;;;4.50;3.40;;;;;;;7.46;80.17;100712.77;107522;1254;108126;-66
2023/02/19 05:09:11;;;;;;;7.10;4.50;;;;;;;7.49;80.00;100716.74;107502;1259;96529;-66
2023/02/19 05:11:40;;;;;;;10.40;6.00;;;;;;;7.50;79.32;100722.04;107521;1254;98168;-65
2023/02/19 05:14:08;;;;;;;10.30;5.80;;;;;;;7.51;79.12;100728.08;107402;1254;110327;-66
2023/02/19 05:16:36;;;;;;;10.00;4.60;;;;;;;7.51;78.54;100732.70;107542;1254;109608;-67
2023/02/19 05:19:04;;;;;;;23.60;14.90;;;;;;;7.45;78.43;100751.34;107524;1255;108431;-65
2023/02/19 05:21:33;;;;;;;6.20;4.30;;;;;;;7.34;78.45;100756.61;107469;1254;97242;-68
2023/02/19 05:24:01;;;;;;;7.30;4.30;;;;;;;7.22;78.89;100768.98;107476;1254;96469;-68
2023/02/19 05:26:30;;;;;;;7.50;4.10;;;;;;;7.05;79.49;100791.42;107438;1254;110578;-65
2023/02/19 05:28:58;;;;;;;12.60;4.50;;;;;;;6.93;80.34;100798.93;107531;1254;109243;-65
2023/02/19 05:31:27;;;;;;;7.10;4.40;;;;;;;6.85;79.75;100795.89;107543;1254;109424;-65
2023/02/19 05:33:56;;;;;;;9.30;4.70;;;;;;;6.87;79.82;100792.73;107544;1254;96470;-67
2023/02/19 05:36:25;;;;;;;8.10;4.60;;;;;;;6.89;79.87;100800.59;107529;1254;97026;-67
2023/02/19 05:38:57;;;;;;;9.00;5.50;;;;;;;6.93;79.82;100808.39;107529;1254;110916;-65
2023/02/19 05:41:28;;;;;;;9.20;4.60;;;;;;;6.93;80.00;100815.48;107568;1254;108717;-68
2023/02/19 05:43:57;;;;;;;10.60;4.40;;;;;;;6.94;80.06;100823.81;107514;1259;110176;-66
2023/02/19 05:46:28;;;;;;;5.70;4.10;;;;;;;6.99;80.27;100828.38;107512;1254;96500;-67
2023/02/19 05:48:58;;;;;;;8.00;4.70;;;;;;;7.03;80.54;100833.48;107518;1254;96352;-67
2023/02/19 05:51:27;;;;;;;5.90;3.90;;;;;;;7.02;80.36;100840.55;107556;1254;109369;-66
2023/02/19 05:53:56;;;;;;;7.00;4.70;;;;;;;7.00;80.73;100847.80;107541;1253;109356;-66
2023/02/19 05:56:24;;;;;;;9.60;5.00;;;;;;;7.02;80.47;100851.95;107526;1254;107682;-65
2023/02/19 05:58:53;;;;;;;9.10;4.70;;;;;;;7.08;80.80;100859.00;107513;1254;96584;-64
2023/02/19 06:01:24;;;;;;;16.00;10.30;;;;;;;7.11;80.55;100865.58;107505;1254;96338;-66
2023/02/19 06:03:53;;;;;;;10.80;5.40;;;;;;;7.15;80.72;100866.16;107509;1254;109646;-66
2023/02/19 06:06:25;;;;;;;6.00;3.90;;;;;;;7.21;80.81;100869.98;107533;1254;109768;-65
2023/02/19 06:08:54;;;;;;;11.70;5.20;;;;;;;7.25;80.82;100886.49;107544;1254;109378;-65
2023/02/19 06:11:23;;;;;;;7.90;3.90;;;;;;;7.24;81.21;100898.87;107506;1257;96930;-65
2023/02/19 06:13:51;;;;;;;5.30;3.90;;;;;;;7.20;81.29;100893.92;107433;1257;96360;-65
2023/02/19 06:16:20;;;;;;;7.10;4.30;;;;;;;7.24;81.09;100892.60;107439;1259;110257;-66
2023/02/19 06:18:49;;;;;;;6.10;3.70;;;;;;;7.25;81.23;100884.66;107543;1258;110273;-66
2023/02/19 06:21:18;;;;;;;14.50;7.80;;;;;;;7.20;81.28;100884.85;107573;1260;106699;-66
2023/02/19 06:23:47;;;;;;;8.70;4.70;;;;;;;7.14;81.39;100881.58;107497;1254;96364;-66
2023/02/19 06:26:21;;;;;;;6.00;4.20;;;;;;;7.16;81.16;100869.45;107525;1254;96460;-66
2023/02/19 06:28:52;;;;;;;5.50;3.20;;;;;;;7.27;81.21;100863.34;107437;1254;109986;-65
2023/02/19 06:31:22;;;;;;;7.70;3.60;;;;;;;7.38;80.94;100856.96;107616;1254;110024;-66
2023/02/19 06:33:51;;;;;;;15.00;4.80;;;;;;;7.48;80.72;100867.81;107488;1257;107800;-65
2023/02/19 06:36:20;;;;;;;13.60;5.20;;;;;;;7.50;80.15;100874.61;107472;1259;96446;-66
2023/02/19 06:38:50;;;;;;;12.10;4.40;;;;;;;7.49;79.53;100876.12;107567;1254;96486;-65
2023/02/19 06:41:18;;;;;;;11.60;5.00;;;;;;;7.50;79.16;100875.69;107596;1258;109887;-67
2023/02/19 06:43:47;;;;;;;9.60;4.70;;;;;;;7.49;78.63;100869.21;107494;1253;109371;-67
2023/02/19 06:46:15;;;;;;;8.20;4.30;;;;;;;7.47;78.53;100860.98;107501;1254;108795;-66
2023/02/19 06:48:44;;;;;;;7.00;4.30;;;;;;;7.47;78.57;100850.58;107486;1254;96474;-66
2023/02/19 06:51:22;;;;;;;6.20;2.40;;;;;;;7.51;78.45;100854.05;107517;1255;97038;-66
2023/02/19 06:53:51;;;;;;;5.30;2.70;;;;;;;7.55;78.21;100845.22;107504;1254;110772;-65
2023/02/19 06:56:28;;;;;;;4.30;2.50;;;;;;;7.59;77.74;100842.77;107525;1257;109615;-67
2023/02/19 06:58:59;;;;;;;4.10;2.60;;;;;;;7.60;76.78;100830.36;107528;1254;107932;-66
2023/02/19 07:01:31;;;;;;;2.60;1.70;;;;;;;7.54;76.47;100815.29;107527;1259;96494;-66
2023/02/19 07:04:00;;;;;;;3.70;2.20;;;;;;;7.47;76.48;100790.80;107543;1254;96493;-67
2023/02/19 07:06:29;;;;;;;5.00;2.20;;;;;;;7.45;76.80;100792.42;107576;1254;110858;-66
2023/02/19 07:08:58;;;;;;;4.70;2.80;;;;;;;7.47;76.87;100794.59;107523;1254;110241;-67
2023/02/19 07:11:30;;;;;;;9.20;3.10;;;;;;;7.48;76.84;100793.77;107501;1258;108636;-66
2023/02/19 07:14:01;;;;;;;3.80;1.80;;;;;;;7.52;76.87;100799.02;107535;1257;96558;-68
2023/02/19 07:16:30;;;;;;;4.50;2.70;;;;;;;7.55;77.03;100805.42;107519;1257;96497;-67
2023/02/19 07:19:04;;;;;;;9.70;2.50;;;;;;;7.57;76.88;100809.20;107302;1257;110112;-68
2023/02/19 07:21:36;;;;;;;3.40;2.70;;;;;;;7.65;76.97;100815.39;107286;1254;108751;-67
2023/02/19 07:24:06;;;;;;;6.80;3.20;;;;;;;7.73;76.87;100806.20;107523;1254;108571;-67
2023/02/19 07:26:34;;;;;;;7.90;3.00;;;;;;;7.87;77.00;100803.19;107548;1254;96476;-68
2023/02/19 07:29:03;;;;;;;2.90;2.20;;;;;;;7.97;76.29;100801.54;107538;1256;96498;-65
2023/02/19 07:31:32;;;;;;;3.50;2.10;;;;;;;7.98;75.51;100817.12;107458;1259;111905;-67
2023/02/19 07:34:00;;;;;;;7.00;2.50;;;;;;;7.93;74.12;100823.46;107431;1259;110143;-68
2023/02/19 07:36:28;;;;;;;4.60;2.10;;;;;;;7.88;73.56;100826.46;107441;1259;108139;-66
2023/02/19 07:38:58;;;;;;;5.10;3.10;;;;;;;7.89;73.02;100832.31;107478;1254;96492;-67
2023/02/19 07:41:27;;;;;;;4.40;2.90;;;;;;;7.98;72.86;100832.52;107532;1258;96472;-68
2023/02/19 07:43:57;;;;;;;4.50;3.00;;;;;;;8.08;72.87;100836.41;107487;1254;110083;-66
2023/02/19 07:46:26;;;;;;;3.90;2.40;;;;;;;8.22;72.67;100827.64;107492;1260;110079;-66
2023/02/19 07:48:55;;;;;;;4.30;3.00;;;;;;;8.29;71.66;100834.62;107400;1259;107022;-65
2023/02/19 07:51:24;;;;;;;10.70;5.70;;;;;;;8.29;71.22;100846.16;107508;1255;96447;-66
2023/02/19 07:53:53;;;;;;;6.80;4.20;;;;;;;8.31;70.45;100835.52;107499;1257;97006;-68
2023/02/19 07:56:21;;;;;;;3.20;2.00;;;;;;;8.32;71.15;100834.73;107425;1255;110314;-66
2023/02/19 07:58:49;;;;;;;5.60;2.70;;;;;;;8.39;71.17;100828.67;107401;1254;110959;-66
2023/02/19 08:02:58;;;;;;;4.80;2.70;;;;;;;8.46;70.89;100826.52;107519;1254;108393;-65
2023/02/19 08:04:25;;;;;;;3.80;2.20;;;;;;;8.50;70.24;100836.08;107463;1254;97302;-66
2023/02/19 08:06:54;;;;;;;4.80;3.40;;;;;;;8.50;69.04;100853.04;107581;1259;96363;-67
2023/02/19 08:09:22;;;;;;;3.20;1.70;;;;;;;8.50;67.91;100854.81;107420;1259;110749;-67
2023/02/19 08:14:37;;;;;;;2.40;1.70;;;;;;;8.74;69.17;100834.73;107464;1254;107698;-66
2023/02/19 08:17:06;;;;;;;3.60;1.90;;;;;;;8.97;68.54;100829.50;107495;1259;96976;-66
2023/02/19 08:19:35;;;;;;;1.90;1.30;;;;;;;9.06;67.81;100815.48;107503;1260;96728;-66
2023/02/19 08:22:03;;;;;;;2.80;1.60;;;;;;;9.13;67.56;100802.77;107520;1254;109965;-66
2023/02/19 08:24:32;;;;;;;19.70;11.40;;;;;;;9.19;67.28;100797.44;107463;1254;109757;-66
2023/02/19 08:27:01;;;;;;;5.90;2.50;;;;;;;9.23;66.83;100797.26;107496;1258;107867;-65
2023/02/19 08:29:29;;;;;;;3.00;1.80;;;;;;;9.30;66.15;100806.00;107507;1254;96382;-68
2023/02/19 08:31:58;;;;;;;3.40;1.30;;;;;;;9.40;66.17;100799.64;107501;1254;96343;-65
2023/02/19 08:34:26;;;;;;;2.60;1.30;;;;;;;9.50;65.79;100802.60;107457;1259;110466;-67
2023/02/19 08:36:55;;;;;;;2.10;1.40;;;;;;;9.65;66.17;100803.30;107555;1254;109647;-67
2023/02/19 08:39:23;;;;;;;3.00;1.40;;;;;;;9.87;65.73;100811.66;107508;1254;108661;-66
2023/02/19 08:41:51;;;;;;;2.00;1.40;;;;;;;10.03;64.62;100821.84;107464;1260;96452;-66
2023/02/19 08:44:20;;;;;;;2.60;1.60;;;;;;;10.14;63.82;100828.77;107503;1255;96369;-66
2023/02/19 08:46:49;;;;;;;1.80;1.50;;;;;;;10.35;63.71;100831.25;107540;1254;110487;-66
2023/02/19 08:49:18;;;;;;;5.20;1.60;;;;;;;10.54;62.28;100829.98;107539;1255;109053;-66
2023/02/19 08:51:47;;;;;;;2.10;1.40;;;;;;;10.69;62.22;100833.70;107475;1259;106789;-65
2023/02/19 08:54:15;;;;;;;3.00;1.80;;;;;;;10.86;62.64;100827.56;107471;1254;96475;-66
2023/02/19 08:56:44;;;;;;;5.20;1.60;;;;;;;11.06;62.29;100818.60;107535;1255;96356;-66
2023/02/19 08:59:12;;;;;;;5.00;1.60;;;;;;;11.18;60.76;100811.20;107498;1255;110776;-68
2023/02/19 09:01:40;;;;;;;3.40;1.90;;;;;;;11.18;61.24;100813.77;107496;1254;109391;-66
2023/02/19 09:04:11;;;;;;;4.40;2.00;;;;;;;11.18;61.25;100813.07;107516;1254;108682;-65
2023/02/19 09:06:40;;;;;;;3.50;1.70;;;;;;;11.16;60.68;100802.81;107450;1254;96471;-67
2023/02/19 09:09:08;;;;;;;3.30;2.20;;;;;;;11.30;60.70;100795.05;107421;1257;96984;-66
2023/02/19 09:11:39;;;;;;;2.80;1.90;;;;;;;11.50;60.29;100791.33;107437;1258;111072;-67
2023/02/19 09:14:08;;;;;;;2.40;1.80;;;;;;;11.71;59.42;100786.80;107451;1254;109704;-66
2023/02/19 09:16:36;;;;;;;5.00;2.50;;;;;;;11.91;57.07;100780.85;107495;1257;108177;-67
2023/02/19 09:19:05;;;;;;;3.80;1.90;;;;;;;12.07;57.14;100774.65;107468;1254;96354;-66
2023/02/19 09:21:33;;;;;;;2.10;1.80;;;;;;;12.37;57.42;100762.46;107490;1254;97019;-66
2023/02/19 09:24:02;;;;;;;3.70;2.10;;;;;;;12.78;56.76;100756.21;107536;1254;110403;-67
2023/02/19 09:26:30;;;;;;;2.90;1.70;;;;;;;13.03;56.77;100754.09;107500;1254;109694;-66
2023/02/19 09:28:59;;;;;;;4.90;2.30;;;;;;;13.18;56.33;100743.25;107499;1254;109730;-66
2023/02/19 09:31:27;;;;;;;4.00;1.80;;;;;;;13.43;56.12;100745.33;107444;1254;96544;-67
2023/02/19 09:33:56;;;;;;;2.00;1.80;;;;;;;13.58;54.92;100731.59;107506;1254;96360;-68
2023/02/19 09:36:24;;;;;;;9.40;2.50;;;;;;;13.76;54.49;100733.31;107487;1254;110668;-68
2023/02/19 09:38:53;;;;;;;4.80;2.30;;;;;;;14.04;55.01;100729.53;107489;1254;110005;-67
2023/02/19 09:41:33;;;;;;;3.40;2.40;;;;;;;14.24;51.26;100731.64;107475;1254;108239;-67
2023/02/19 09:44:05;;;;;;;3.70;2.00;;;;;;;14.24;51.10;100729.23;107416;1254;96548;-67
2023/02/19 09:46:41;;;;;;;3.40;1.90;;;;;;;14.07;51.47;100733.92;107495;1254;97033;-65
2023/02/19 09:49:21;;;;;;;2.30;1.80;;;;;;;13.83;51.29;100748.06;107423;1254;110069;-67
2023/02/19 09:52:06;;;;;;;2.60;2.10;;;;;;;13.65;51.91;100746.85;106771;1254;958063;-68
2023/02/19 09:54:37;;;;;;;3.40;1.90;;;;;;;13.54;51.73;100756.68;107463;1254;108195;-68
2023/02/19 09:57:14;;;;;;;4.60;2.30;;;;;;;13.32;51.88;100762.61;107387;1260;96373;-67
2023/02/19 09:59:50;;;;;;;4.50;2.70;;;;;;;13.42;51.40;100771.71;107467;1254;97096;-68
2023/02/19 10:02:23;;;;;;;7.20;2.80;;;;;;;13.57;50.49;100768.95;107436;1254;110206;-68
2023/02/19 10:04:52;;;;;;;4.40;2.20;;;;;;;13.34;49.87;100773.15;107498;1257;109003;-67
2023/02/19 10:07:32;;;;;;;4.80;2.80;;;;;;;13.16;50.08;100779.13;107336;1254;107662;-66
2023/02/19 10:10:12;;;;;;;6.50;3.20;;;;;;;13.20;50.41;100769.56;107421;1254;96444;-68
2023/02/19 10:12:49;;;;;;;5.50;2.60;;;;;;;13.21;50.97;100770.88;107462;1255;97045;-67
2023/02/19 10:15:30;;;;;;;4.80;2.70;;;;;;;13.19;50.74;100770.77;107390;1259;110843;-66
2023/02/19 10:17:58;;;;;;;8.00;2.50;;;;;;;13.11;50.05;100767.36;107443;1254;109420;-66
2023/02/19 10:20:27;;;;;;;4.30;2.30;;;;;;;13.02;50.34;100757.92;107447;1254;109520;-67
2023/02/19 10:23:06;;;;;;;9.90;2.40;;;;;;;12.75;50.39;100758.25;107453;1254;96554;-67
2023/02/19 10:25:39;;;;;;;5.20;2.60;;;;;;;12.74;50.79;100753.32;107375;1254;96478;-66
2023/02/19 10:28:15;;;;;;;5.90;2.40;;;;;;;12.91;51.39;100742.71;107467;1254;110530;-67
2023/02/19 10:30:50;;;;;;;3.40;2.50;;;;;;;13.13;51.28;100741.13;107505;1254;110116;-66
2023/02/19 10:33:20;;;;;;;6.20;2.80;;;;;;;13.35;49.82;100739.59;107444;1254;108894;-66
2023/02/19 10:35:56;;;;;;;6.90;2.50;;;;;;;13.63;50.64;100730.71;107443;1254;96478;-67
2023/02/19 10:38:46;;;;;;;5.00;2.40;;;;;;;14.08;50.09;100714.88;107454;1257;97450;-66
2023/02/19 10:41:19;;;;;;;3.60;2.80;;;;;;;14.11;49.28;100712.20;107436;1255;110728;-66
2023/02/19 10:44:13;;;;;;;3.80;2.50;;;;;;;14.18;48.39;100713.71;107420;1254;109133;-67
2023/02/19 10:46:49;;;;;;;10.90;3.40;;;;;;;14.49;49.20;100701.44;107462;1257;108616;-68
2023/02/19 10:49:34;;;;;;;6.10;2.80;;;;;;;14.98;49.42;100694.00;107483;1254;96379;-67
2023/02/19 10:52:16;;;;;;;12.90;2.90;;;;;;;15.32;47.18;100690.09;107511;1254;96980;-67
2023/02/19 10:54:50;;;;;;;5.40;2.80;;;;;;;15.72;47.21;100689.20;107488;1254;110999;-67
2023/02/19 10:57:28;;;;;;;11.20;2.30;;;;;;;15.83;47.50;100690.10;107454;1254;110159;-69
2023/02/19 11:00:14;;;;;;;3.50;2.20;;;;;;;15.60;45.96;100687.46;107552;1254;108182;-67
2023/02/19 11:02:44;;;;;;;5.50;2.10;;;;;;;15.27;46.51;100686.89;107481;1254;96504;-67
2023/02/19 11:05:15;;;;;;;4.40;2.50;;;;;;;15.02;46.47;100683.08;107573;1254;96364;-66
2023/02/19 11:07:46;;;;;;;5.20;2.80;;;;;;;14.66;46.64;100673.68;107402;1254;110518;-66
2023/02/19 11:10:26;;;;;;;8.40;2.50;;;;;;;14.33;47.15;100670.63;107434;1254;108931;-68
2023/02/19 11:13:01;;;;;;;5.70;2.50;;;;;;;14.17;48.08;100669.02;107496;1254;108146;-67
2023/02/19 11:15:32;;;;;;;6.30;2.60;;;;;;;14.04;48.02;100668.00;107366;1254;96475;-66
2023/02/19 11:18:21;;;;;;;7.60;2.60;;;;;;;13.90;48.22;100664.85;107477;1254;96570;-67
2023/02/19 11:21:00;;;;;;;9.80;2.40;;;;;;;13.72;48.39;100656.00;107472;1254;110400;-68
2023/02/19 11:23:34;;;;;;;4.80;2.60;;;;;;;13.54;48.81;100653.02;107509;1254;110024;-68
2023/02/19 11:26:14;;;;;;;3.30;2.40;;;;;;;13.33;49.02;100652.27;107508;1257;107498;-67
2023/02/19 11:28:43;;;;;;;4.30;2.20;;;;;;;13.14;49.23;100649.27;107527;1254;96569;-69
2023/02/19 11:31:21;;;;;;;3.50;2.50;;;;;;;12.99;49.32;100644.48;107499;1254;96478;-69
2023/02/19 11:34:24;;;;;;;5.10;2.80;;;;;;;12.85;49.45;100648.46;107484;1254;110356;-67
2023/02/19 11:37:12;;;;;;;8.40;3.30;;;;;;;12.63;50.12;100642.13;107457;1254;109260;-67
2023/02/19 11:39:46;;;;;;;9.10;2.80;;;;;;;12.40;50.82;100634.89;107454;1254;108784;-68
2023/02/19 11:42:38;;;;;;;7.60;2.70;;;;;;;12.25;51.48;100630.94;107476;1255;97030;-67
2023/02/19 11:45:19;;;;;;;8.50;2.50;;;;;;;12.14;51.82;100624.48;107508;1254;96504;-66
2023/02/19 11:48:12;;;;;;;4.10;2.70;;;;;;;12.02;51.96;100627.63;107460;1254;110397;-66
2023/02/19 11:51:18;;;;;;;5.30;2.70;;;;;;;11.91;52.11;100625.25;107457;1257;109789;-67
2023/02/19 11:53:59;;;;;;;4.50;2.40;;;;;;;11.79;52.22;100623.10;107430;1254;108473;-67
2023/02/19 11:56:38;;;;;;;8.20;2.50;;;;;;;11.71;52.45;100626.35;107456;1254;96472;-68
2023/02/19 11:59:37;;;;;;;9.20;2.90;;;;;;;11.61;52.98;100626.96;107461;1254;96362;-66
2023/02/19 12:02:24;;;;;;;3.70;2.70;;;;;;;11.54;53.22;100629.29;107495;1254;110953;-68
2023/02/19 12:04:55;;;;;;;6.10;3.10;;;;;;;11.47;53.46;100632.28;107509;1253;110043;-67